Time;durP1;ratioP1;P1;durP2;ratioP2;P2;SDS_P1;SDS_P2;PMS_P1;PMS_P2;Temp;Humidity;BMP_temperature;BMP_pressure;BME280_temperature;BME280_humidity;BME280_pressure;Samples;Min_cycle;Max_cycle;Signal;HPM_P1;HPM_P2
2022/06/07 00:02:12;;;;;;;3.55;2.05;;;28.40;99.90;;;;;;4154017;28;20045;-70
2022/06/07 00:04:38;;;;;;;2.80;1.52;;;28.50;99.90;;;;;;4164392;28;20090;-69
2022/06/07 00:07:03;;;;;;;4.80;1.90;;;28.50;99.90;;;;;;4175759;28;20072;-70
2022/06/07 00:09:19;;;;;;;3.70;1.90;;;28.50;99.90;;;;;;4122666;28;20074;-70
2022/06/07 00:11:45;;;;;;;2.95;1.52;;;28.60;99.90;;;;;;4185025;28;20048;-70
2022/06/07 00:14:01;;;;;;;4.43;1.75;;;28.60;99.90;;;;;;4169749;28;20064;-70
2022/06/07 00:16:26;;;;;;;3.88;1.88;;;28.70;99.90;;;;;;4176107;28;20056;-70
2022/06/07 00:18:47;;;;;;;5.40;1.65;;;28.80;99.90;;;;;;4177086;28;20049;-70
2022/06/07 00:21:14;;;;;;;3.95;1.50;;;28.80;99.90;;;;;;4143453;28;20069;-68
2022/06/07 00:23:29;;;;;;;4.32;1.60;;;28.90;99.90;;;;;;4170555;28;20534;-69
2022/06/07 00:25:55;;;;;;;6.72;1.90;;;29.00;99.90;;;;;;4160809;28;20314;-69
2022/06/07 00:28:14;;;;;;;5.60;2.20;;;29.10;99.90;;;;;;4172205;28;20049;-68
2022/06/07 00:30:36;;;;;;;4.90;1.80;;;29.10;99.90;;;;;;4160073;28;20582;-69
2022/06/07 00:33:03;;;;;;;4.05;1.73;;;29.20;99.90;;;;;;4121244;28;20206;-69
2022/06/07 00:35:28;;;;;;;5.10;1.60;;;29.20;99.90;;;;;;4152767;28;20078;-71
2022/06/07 00:37:54;;;;;;;3.70;1.45;;;29.30;99.90;;;;;;4149832;28;20057;-69
2022/06/07 00:40:21;;;;;;;6.78;2.10;;;29.30;99.90;;;;;;4147078;28;20084;-69
2022/06/07 00:42:45;;;;;;;4.57;2.00;;;29.40;99.90;;;;;;4153170;28;20722;-68
2022/06/07 00:45:16;;;;;;;5.90;1.75;;;29.40;99.90;;;;;;4152944;28;20045;-69
2022/06/07 00:47:42;;;;;;;3.83;1.70;;;29.40;99.90;;;;;;4160788;28;20053;-69
2022/06/07 00:50:22;;;;;;;2.75;1.15;;;29.50;99.90;;;;;;4151889;28;20046;-69
2022/06/07 00:52:50;;;;;;;3.10;1.15;;;29.50;99.90;;;;;;4157017;28;20061;-71
2022/06/07 00:55:13;;;;;;;3.83;1.48;;;29.50;99.70;;;;;;4162121;28;20520;-69
2022/06/07 00:57:37;;;;;;;6.53;1.38;;;29.60;99.70;;;;;;4149654;28;20811;-69
2022/06/07 01:00:06;;;;;;;2.72;1.40;;;29.60;99.50;;;;;;4162534;28;20046;-70
2022/06/07 01:02:28;;;;;;;3.90;2.00;;;29.70;99.40;;;;;;4168626;28;20073;-69
2022/06/07 01:04:53;;;;;;;4.85;3.08;;;29.60;99.40;;;;;;4187143;28;20106;-70
2022/06/07 01:12:32;;;;;;;4.03;1.60;;;29.70;99.30;;;;;;4168937;28;20052;-69
2022/06/07 01:14:58;;;;;;;4.38;1.27;;;29.80;99.30;;;;;;4171666;28;20037;-69
2022/06/07 01:17:24;;;;;;;3.80;1.45;;;29.90;98.80;;;;;;4168555;28;20111;-69
2022/06/07 01:19:45;;;;;;;2.80;1.13;;;29.90;98.50;;;;;;4159554;28;20124;-71
2022/06/07 01:21:53;;;;;;;3.17;1.20;;;30.00;98.40;;;;;;4173205;28;20561;-69
2022/06/07 01:24:09;;;;;;;2.25;1.10;;;29.90;98.30;;;;;;4178670;28;20354;-69
2022/06/07 01:26:53;;;;;;;2.38;0.90;;;30.00;98.40;;;;;;4156276;28;20050;-69
2022/06/07 01:29:18;;;;;;;3.70;1.52;;;30.10;98.30;;;;;;4133340;28;20049;-70
2022/06/07 01:31:45;;;;;;;4.00;1.50;;;30.10;98.30;;;;;;4174172;28;20136;-70
2022/06/07 01:34:15;;;;;;;3.67;1.40;;;30.20;98.10;;;;;;4143794;28;20053;-70
2022/06/07 01:36:32;;;;;;;4.05;1.58;;;30.20;98.20;;;;;;4171178;28;20051;-71
2022/06/07 01:38:45;;;;;;;2.55;1.00;;;30.30;98.00;;;;;;4194347;28;20506;-69
2022/06/07 01:43:31;;;;;;;4.00;1.13;;;30.40;97.90;;;;;;4170112;28;20057;-71
2022/06/07 01:46:03;;;;;;;4.53;1.42;;;30.30;97.80;;;;;;4179873;28;20649;-72
2022/06/07 01:48:15;;;;;;;2.47;1.10;;;30.40;97.70;;;;;;4165248;28;20135;-71
2022/06/07 01:50:22;;;;;;;5.82;1.40;;;30.50;97.50;;;;;;4155778;28;20046;-70
2022/06/07 01:52:43;;;;;;;2.25;1.10;;;30.50;97.40;;;;;;4168543;28;20059;-70
2022/06/07 01:55:08;;;;;;;3.65;1.17;;;30.60;97.40;;;;;;4171848;28;20796;-72
2022/06/07 01:57:34;;;;;;;3.22;1.02;;;30.60;97.10;;;;;;4161294;28;20742;-71
2022/06/07 01:59:58;;;;;;;2.08;1.05;;;30.60;97.10;;;;;;4186786;28;20049;-70
2022/06/07 02:02:27;;;;;;;3.38;1.50;;;30.70;97.10;;;;;;4160698;28;20518;-69
2022/06/07 02:04:52;;;;;;;8.57;1.40;;;30.70;97.10;;;;;;4162948;28;20038;-70
2022/06/07 02:07:01;;;;;;;3.75;1.35;;;30.80;96.50;;;;;;4161116;28;20042;-70
2022/06/07 02:09:15;;;;;;;5.37;1.03;;;30.90;96.30;;;;;;4174928;28;20053;-71
2022/06/07 02:11:26;;;;;;;5.25;1.42;;;30.80;95.90;;;;;;4178472;28;20125;-70
2022/06/07 02:13:52;;;;;;;4.40;1.33;;;30.70;96.10;;;;;;4159999;28;20041;-71
2022/06/07 02:16:19;;;;;;;3.35;1.30;;;30.90;96.20;;;;;;4162765;28;20312;-70
2022/06/07 02:18:36;;;;;;;4.13;1.23;;;31.00;95.60;;;;;;4174638;28;20045;-70
2022/06/07 02:21:13;;;;;;;2.85;1.20;;;31.10;96.10;;;;;;4132417;28;20099;-71
2022/06/07 02:23:25;;;;;;;4.90;1.10;;;31.20;95.50;;;;;;4148568;28;20074;-70
2022/06/07 02:25:43;;;;;;;2.50;1.08;;;31.10;95.30;;;;;;4172677;28;20065;-71
2022/06/07 02:28:05;;;;;;;4.05;1.08;;;31.10;95.20;;;;;;4181369;28;20503;-70
2022/06/07 02:30:26;;;;;;;3.17;1.30;;;31.20;95.40;;;;;;4157040;28;20042;-71
2022/06/07 02:32:33;;;;;;;3.35;0.88;;;31.20;95.50;;;;;;4156221;28;20040;-71
2022/06/07 02:34:45;;;;;;;2.33;1.20;;;31.30;94.90;;;;;;4145667;28;20038;-70
2022/06/07 02:37:12;;;;;;;4.80;1.00;;;31.20;95.00;;;;;;4168249;28;20049;-70
2022/06/07 02:39:29;;;;;;;2.78;1.00;;;31.30;95.00;;;;;;4180475;28;20128;-69
2022/06/07 02:41:55;;;;;;;2.28;0.90;;;31.10;95.00;;;;;;4113652;28;20101;-69
2022/06/07 02:44:22;;;;;;;3.67;1.10;;;31.30;95.30;;;;;;4179690;28;20052;-69
2022/06/07 02:46:29;;;;;;;3.13;0.88;;;31.40;95.70;;;;;;4166890;28;20132;-68
2022/06/07 02:48:55;;;;;;;5.28;1.23;;;31.40;95.40;;;;;;4139915;28;20067;-68
2022/06/07 02:51:23;;;;;;;2.88;1.00;;;31.50;95.50;;;;;;4142796;28;20052;-67
2022/06/07 02:53:40;;;;;;;2.72;0.93;;;31.60;95.10;;;;;;4198833;28;20556;-70
2022/06/07 02:55:53;;;;;;;2.58;1.08;;;31.80;94.90;;;;;;4163200;28;20143;-69
2022/06/07 02:58:16;;;;;;;2.67;1.10;;;31.80;94.40;;;;;;4155241;28;20037;-69
2022/06/07 03:00:26;;;;;;;3.97;1.23;;;31.90;94.20;;;;;;4150772;28;20055;-69
2022/06/07 03:02:52;;;;;;;3.30;1.00;;;32.00;94.30;;;;;;4156763;28;20493;-69
2022/06/07 03:05:03;;;;;;;4.30;1.17;;;32.10;94.30;;;;;;4169505;28;20076;-70
2022/06/07 03:07:29;;;;;;;2.28;1.00;;;32.10;94.00;;;;;;4140959;28;20101;-70
2022/06/07 03:09:55;;;;;;;5.20;2.00;;;32.10;94.00;;;;;;4140383;28;20056;-69
2022/06/07 03:12:22;;;;;;;6.63;1.92;;;32.00;94.30;;;;;;4169078;28;20483;-69
2022/06/07 03:14:31;;;;;;;2.60;1.00;;;32.10;94.50;;;;;;4168395;28;20053;-69
2022/06/07 03:16:59;;;;;;;5.63;1.20;;;32.20;94.50;;;;;;4122264;28;20632;-70
2022/06/07 03:19:13;;;;;;;4.03;1.42;;;32.10;94.30;;;;;;4151484;28;20791;-70
2022/06/07 03:21:23;;;;;;;3.30;1.25;;;32.00;93.90;;;;;;4167755;28;20053;-70
2022/06/07 03:23:49;;;;;;;4.25;1.27;;;31.90;94.20;;;;;;4140294;28;20107;-69
2022/06/07 03:26:06;;;;;;;4.30;1.40;;;31.90;94.20;;;;;;4169578;28;20051;-70
2022/06/07 03:28:37;;;;;;;3.60;1.33;;;32.00;94.20;;;;;;4138145;28;20544;-70
2022/06/07 03:30:49;;;;;;;4.32;1.15;;;32.00;94.00;;;;;;4152020;28;20049;-70
2022/06/07 03:33:11;;;;;;;3.40;1.20;;;32.10;94.30;;;;;;4168102;28;20044;-70
2022/06/07 03:35:22;;;;;;;3.92;1.30;;;32.10;94.60;;;;;;4165646;28;20120;-70
2022/06/07 03:37:37;;;;;;;4.22;1.25;;;32.10;93.80;;;;;;4116266;28;20047;-70
2022/06/07 03:39:46;;;;;;;3.50;1.23;;;32.20;93.90;;;;;;4167217;28;20079;-72
2022/06/07 03:42:01;;;;;;;3.72;1.20;;;32.10;93.80;;;;;;4137325;28;20137;-69
2022/06/07 03:44:12;;;;;;;5.15;2.03;;;32.00;93.80;;;;;;4170994;28;20042;-70
2022/06/07 03:46:29;;;;;;;3.22;1.77;;;31.80;94.40;;;;;;4170004;28;20088;-69
2022/06/07 03:48:56;;;;;;;3.55;1.30;;;31.90;94.80;;;;;;4146367;28;20045;-72
2022/06/07 03:51:06;;;;;;;2.55;1.38;;;31.90;94.10;;;;;;4153583;28;20610;-70
2022/06/07 03:53:20;;;;;;;4.13;1.80;;;32.00;94.10;;;;;;4153343;28;20080;-72
2022/06/07 03:55:44;;;;;;;11.30;3.33;;;32.10;94.00;;;;;;4164598;28;20040;-70
2022/06/07 03:57:59;;;;;;;7.78;2.70;;;32.20;94.00;;;;;;4163587;28;20049;-70
2022/06/07 04:00:22;;;;;;;5.63;2.15;;;32.30;93.90;;;;;;4153670;28;20045;-71
2022/06/07 04:02:35;;;;;;;3.60;1.40;;;32.30;94.20;;;;;;4170531;28;20057;-71
2022/06/07 04:05:02;;;;;;;5.68;1.60;;;32.40;94.00;;;;;;4155690;28;20038;-70
2022/06/07 04:09:39;;;;;;;4.53;1.20;;;32.60;94.50;;;;;;4151690;28;20130;-69
2022/06/07 04:12:14;;;;;;;2.45;0.95;;;32.80;94.10;;;;;;4104259;28;20049;-70
2022/06/07 04:14:40;;;;;;;3.08;1.40;;;32.90;93.90;;;;;;4151898;28;20077;-71
2022/06/07 04:16:52;;;;;;;5.80;2.50;;;33.00;93.50;;;;;;4153039;28;20061;-71
2022/06/07 04:19:15;;;;;;;7.18;4.10;;;33.10;93.30;;;;;;4171004;28;20881;-69
2022/06/07 04:21:40;;;;;;;6.60;2.85;;;33.20;93.40;;;;;;4155330;28;20055;-70
2022/06/07 04:24:22;;;;;;;5.90;1.63;;;33.20;93.10;;;;;;4168744;28;20103;-71
2022/06/07 04:26:49;;;;;;;4.50;1.42;;;33.10;92.70;;;;;;4143105;28;20569;-70
2022/06/07 04:29:01;;;;;;;2.67;1.20;;;33.00;92.60;;;;;;4167869;28;20745;-71
2022/06/07 04:31:15;;;;;;;3.67;1.58;;;32.90;92.60;;;;;;4155317;28;20042;-71
2022/06/07 04:33:27;;;;;;;2.60;1.35;;;33.00;92.80;;;;;;4113163;28;20443;-70
2022/06/07 04:35:45;;;;;;;3.15;1.27;;;33.00;93.20;;;;;;4166143;28;20120;-72
2022/06/07 04:38:08;;;;;;;3.75;1.27;;;33.00;93.00;;;;;;4156837;28;20814;-72
2022/06/07 04:40:38;;;;;;;3.63;1.30;;;33.20;92.90;;;;;;4182656;28;20067;-71
2022/06/07 04:42:53;;;;;;;4.30;1.30;;;32.90;92.20;;;;;;4172281;28;20063;-71
2022/06/07 04:45:23;;;;;;;5.97;1.50;;;32.70;92.40;;;;;;4168627;28;20395;-70
2022/06/07 04:47:53;;;;;;;2.08;1.30;;;33.00;92.60;;;;;;4172089;28;20051;-69
2022/06/07 04:50:17;;;;;;;6.82;1.40;;;33.40;92.50;;;;;;4171721;28;20081;-70
2022/06/07 04:52:45;;;;;;;3.05;1.15;;;33.40;92.10;;;;;;4161289;28;20049;-71
2022/06/07 04:55:12;;;;;;;3.85;1.60;;;33.60;92.80;;;;;;4157746;28;20049;-71
2022/06/07 04:57:37;;;;;;;4.30;1.83;;;33.80;92.70;;;;;;4155026;28;20752;-70
2022/06/07 05:00:05;;;;;;;3.38;1.52;;;34.00;93.10;;;;;;4167596;28;20049;-71
2022/06/07 05:02:36;;;;;;;5.63;1.70;;;34.00;92.90;;;;;;4145894;28;20050;-71
2022/06/07 05:04:59;;;;;;;4.43;1.58;;;34.00;92.50;;;;;;4154181;28;20774;-70
2022/06/07 05:07:22;;;;;;;4.53;1.40;;;33.90;92.40;;;;;;4166749;28;20110;-71
2022/06/07 05:10:00;;;;;;;2.22;1.30;;;33.80;92.20;;;;;;4170093;28;20119;-71
2022/06/07 05:12:32;;;;;;;4.40;1.38;;;33.80;92.10;;;;;;4157967;28;20067;-71
2022/06/07 05:15:00;;;;;;;3.33;1.40;;;34.00;92.50;;;;;;4151750;28;20056;-70
2022/06/07 05:17:31;;;;;;;6.00;1.20;;;34.00;92.40;;;;;;4169348;28;20056;-71
2022/06/07 05:19:55;;;;;;;4.13;1.35;;;34.10;92.30;;;;;;4158515;28;20052;-73
2022/06/07 05:22:24;;;;;;;4.53;1.40;;;34.10;92.20;;;;;;4171280;28;20077;-69
2022/06/07 05:24:51;;;;;;;4.05;1.67;;;34.10;92.20;;;;;;4184653;28;20045;-70
2022/06/07 05:27:21;;;;;;;4.28;1.58;;;33.90;91.80;;;;;;4171042;28;20056;-69
2022/06/07 05:29:50;;;;;;;4.10;1.90;;;33.90;91.50;;;;;;4143853;28;20072;-70
2022/06/07 05:32:35;;;;;;;2.10;1.27;;;33.70;92.00;;;;;;4170615;28;20268;-69
2022/06/07 05:35:04;;;;;;;4.65;2.05;;;33.90;92.20;;;;;;4141717;28;20685;-69
2022/06/07 05:37:34;;;;;;;4.05;1.27;;;34.00;92.30;;;;;;4167652;28;20114;-70
2022/06/07 05:40:19;;;;;;;6.15;1.50;;;33.90;91.70;;;;;;4177696;28;20064;-72
2022/06/07 05:42:46;;;;;;;2.58;1.38;;;33.90;92.20;;;;;;4144031;28;20100;-72
2022/06/07 05:45:22;;;;;;;7.63;3.05;;;34.20;92.00;;;;;;4167460;28;20091;-70
2022/06/07 05:47:34;;;;;;;4.15;1.90;;;34.10;91.50;;;;;;4164336;28;20045;-71
2022/06/07 05:50:04;;;;;;;3.60;1.30;;;34.20;91.80;;;;;;4130324;28;20698;-70
2022/06/07 05:52:31;;;;;;;4.43;1.20;;;34.40;92.00;;;;;;4152596;28;20058;-70
2022/06/07 05:54:55;;;;;;;3.20;1.40;;;34.40;91.50;;;;;;4150797;28;20095;-70
2022/06/07 05:57:19;;;;;;;6.38;1.80;;;34.20;91.30;;;;;;4147570;28;20079;-71
2022/06/07 05:59:43;;;;;;;2.67;1.30;;;34.00;91.50;;;;;;4147663;28;20148;-70
2022/06/07 06:02:10;;;;;;;4.82;1.35;;;33.80;91.10;;;;;;4164571;28;20055;-70
2022/06/07 06:04:35;;;;;;;3.72;1.58;;;33.80;91.50;;;;;;4144295;28;20056;-70
2022/06/07 06:06:58;;;;;;;4.30;1.95;;;33.80;91.60;;;;;;4131593;28;20049;-70
2022/06/07 06:12:07;;;;;;;4.95;1.48;;;33.70;91.80;;;;;;4158357;28;20076;-71
2022/06/07 06:14:45;;;;;;;3.50;1.30;;;33.70;92.20;;;;;;4122442;28;20077;-71
2022/06/07 06:17:00;;;;;;;4.93;1.55;;;33.70;92.10;;;;;;4134626;28;20064;-71
2022/06/07 06:19:13;;;;;;;4.85;1.80;;;33.70;92.00;;;;;;4131895;28;20058;-70
2022/06/07 06:21:27;;;;;;;3.88;1.52;;;33.80;91.40;;;;;;4112300;28;20142;-71
2022/06/07 06:23:53;;;;;;;2.47;1.33;;;33.70;91.40;;;;;;4130485;28;20112;-70
2022/06/07 06:26:18;;;;;;;5.55;1.90;;;33.70;91.70;;;;;;4111432;28;20140;-67
2022/06/07 06:28:25;;;;;;;3.63;1.58;;;33.90;91.80;;;;;;4116585;28;20657;-67
2022/06/07 06:30:36;;;;;;;3.85;1.35;;;34.00;91.70;;;;;;4125861;28;20097;-66
2022/06/07 06:32:55;;;;;;;5.07;1.40;;;33.90;91.60;;;;;;4108283;28;20065;-66
2022/06/07 06:35:01;;;;;;;5.70;1.30;;;33.90;91.20;;;;;;4153840;28;20045;-66
2022/06/07 06:37:16;;;;;;;2.60;1.30;;;33.90;90.80;;;;;;4159293;28;20076;-66
2022/06/07 06:39:31;;;;;;;2.92;1.15;;;33.90;91.10;;;;;;4154940;28;20048;-67
2022/06/07 06:41:43;;;;;;;3.88;1.73;;;33.90;91.70;;;;;;4165319;28;20122;-67
2022/06/07 06:44:07;;;;;;;2.60;1.40;;;33.90;91.90;;;;;;4194072;28;20058;-67
2022/06/07 06:46:34;;;;;;;3.67;1.40;;;33.90;92.00;;;;;;4164122;28;20111;-66
2022/06/07 06:48:44;;;;;;;4.28;1.65;;;34.20;92.00;;;;;;4177569;28;20048;-67
2022/06/07 06:51:04;;;;;;;2.40;1.30;;;34.20;91.50;;;;;;4149982;28;20077;-66
2022/06/07 06:53:33;;;;;;;6.88;1.70;;;34.20;91.80;;;;;;4144765;28;20038;-67
2022/06/07 06:55:54;;;;;;;4.07;1.33;;;34.20;91.60;;;;;;4155504;28;20049;-65
2022/06/07 06:58:07;;;;;;;3.25;1.30;;;34.20;92.00;;;;;;4164695;28;20978;-65
2022/06/07 07:00:20;;;;;;;4.65;1.63;;;34.10;91.60;;;;;;4145881;28;20602;-67
2022/06/07 07:02:45;;;;;;;2.65;1.67;;;34.00;91.60;;;;;;4149946;28;20084;-66
2022/06/07 07:04:57;;;;;;;3.60;1.75;;;33.80;91.70;;;;;;4162163;28;20127;-66
2022/06/07 07:07:07;;;;;;;3.55;1.42;;;34.10;91.80;;;;;;4145389;28;20037;-66
2022/06/07 07:09:11;;;;;;;5.00;1.80;;;34.20;91.80;;;;;;4134815;28;20050;-65
2022/06/07 07:11:24;;;;;;;3.13;1.40;;;34.10;91.70;;;;;;4139538;28;20082;-66
2022/06/07 07:13:51;;;;;;;3.88;1.63;;;34.10;91.40;;;;;;4144273;28;20056;-66
2022/06/07 07:15:59;;;;;;;5.13;1.55;;;34.10;91.60;;;;;;4155859;28;20045;-66
2022/06/07 07:18:09;;;;;;;5.35;2.67;;;34.20;91.60;;;;;;4112621;28;20084;-67
2022/06/07 07:20:21;;;;;;;6.53;2.90;;;34.30;90.80;;;;;;4139347;28;20167;-67
2022/06/07 07:22:27;;;;;;;4.03;1.95;;;34.30;90.80;;;;;;4141090;28;20687;-66
2022/06/07 07:24:37;;;;;;;7.90;1.77;;;34.40;90.90;;;;;;4171480;28;20135;-67
2022/06/07 07:26:45;;;;;;;4.60;1.73;;;34.50;91.20;;;;;;4159614;28;20056;-67
2022/06/07 07:28:57;;;;;;;4.30;1.52;;;34.60;91.20;;;;;;4161290;28;20080;-66
2022/06/07 07:31:08;;;;;;;3.97;1.52;;;34.60;91.30;;;;;;4122494;28;20061;-66
2022/06/07 07:33:22;;;;;;;2.83;1.50;;;34.50;91.30;;;;;;4158502;28;20622;-66
2022/06/07 07:35:45;;;;;;;4.68;1.88;;;34.40;91.40;;;;;;4156116;28;20054;-66
2022/06/07 07:37:53;;;;;;;3.78;1.60;;;34.30;91.30;;;;;;4173144;28;20609;-66
2022/06/07 07:39:59;;;;;;;4.85;1.52;;;34.40;91.80;;;;;;4161608;28;20053;-66
2022/06/07 07:42:05;;;;;;;3.35;1.35;;;34.20;91.10;;;;;;4140157;28;20805;-66
2022/06/07 07:44:14;;;;;;;5.70;1.70;;;34.30;91.30;;;;;;4177335;28;20047;-66
2022/06/07 07:46:26;;;;;;;4.72;1.48;;;34.30;91.30;;;;;;4107672;28;20058;-65
2022/06/07 07:48:31;;;;;;;3.33;1.60;;;34.60;90.90;;;;;;4156274;28;20044;-66
2022/06/07 07:50:39;;;;;;;3.08;1.40;;;34.70;90.90;;;;;;4155453;28;20065;-67
2022/06/07 07:52:47;;;;;;;4.53;1.33;;;34.90;90.80;;;;;;4141449;28;20532;-67
2022/06/07 07:54:52;;;;;;;3.65;1.40;;;35.00;90.50;;;;;;4161222;28;20114;-67
2022/06/07 07:57:00;;;;;;;4.97;2.83;;;35.20;90.60;;;;;;4145362;28;20121;-67
2022/06/07 07:59:20;;;;;;;3.60;1.92;;;35.30;90.90;;;;;;4166636;28;20817;-67
2022/06/07 08:01:29;;;;;;;3.22;1.30;;;35.40;90.50;;;;;;4151073;28;20033;-67
2022/06/07 08:03:41;;;;;;;5.30;1.90;;;35.40;89.70;;;;;;4139685;28;20070;-68
2022/06/07 08:06:00;;;;;;;5.63;1.83;;;35.50;90.30;;;;;;4155858;28;20041;-68
2022/06/07 08:08:06;;;;;;;3.90;1.67;;;35.30;90.10;;;;;;4157476;28;20046;-68
2022/06/07 08:10:17;;;;;;;1.98;1.23;;;35.40;89.80;;;;;;4159907;28;20087;-67
2022/06/07 08:12:27;;;;;;;4.75;1.55;;;35.30;89.80;;;;;;4157462;28;20053;-67
2022/06/07 08:14:33;;;;;;;7.07;1.52;;;35.30;89.00;;;;;;4163303;28;20136;-68
2022/06/07 08:16:41;;;;;;;5.07;1.60;;;35.20;88.70;;;;;;4166032;28;20622;-68
2022/06/07 08:18:53;;;;;;;4.32;1.42;;;35.00;89.30;;;;;;4163728;28;20706;-67
2022/06/07 08:21:01;;;;;;;4.05;1.50;;;34.90;89.20;;;;;;4164777;28;20135;-68
2022/06/07 08:23:10;;;;;;;4.30;1.40;;;34.70;89.40;;;;;;4162227;28;20057;-66
2022/06/07 08:25:24;;;;;;;3.25;1.38;;;34.70;89.50;;;;;;4169734;28;20041;-68
2022/06/07 08:27:29;;;;;;;3.92;1.35;;;34.70;90.00;;;;;;4159372;28;20099;-67
2022/06/07 08:29:38;;;;;;;3.80;1.30;;;34.80;89.70;;;;;;4165407;28;20103;-66
2022/06/07 08:31:43;;;;;;;4.28;1.35;;;34.70;90.00;;;;;;4165334;28;20037;-67
2022/06/07 08:38:31;;;;;;;;;;;34.90;90.10;;;;;;4159584;28;20091;-66
2022/06/07 08:40:43;;;;;;;5.28;1.50;;;34.90;90.00;;;;;;4162713;28;19924;-67
2022/06/07 08:42:59;;;;;;;4.20;1.38;;;34.80;89.00;;;;;;4161554;28;20455;-66
2022/06/07 08:45:26;;;;;;;3.28;1.08;;;34.70;89.70;;;;;;4165300;28;20573;-67
2022/06/07 08:48:01;;;;;;;3.15;1.17;;;34.60;90.00;;;;;;4148279;28;20061;-67
2022/06/07 08:50:22;;;;;;;3.83;1.55;;;34.50;90.00;;;;;;4164001;28;20073;-66
2022/06/07 08:52:37;;;;;;;4.55;1.90;;;34.40;90.00;;;;;;4155175;28;20057;-67
2022/06/07 08:54:49;;;;;;;14.02;8.38;;;34.40;90.60;;;;;;4154097;28;20096;-67
2022/06/07 08:57:20;;;;;;;14.40;8.52;;;34.30;91.10;;;;;;4148380;28;20060;-67
2022/06/07 08:59:29;;;;;;;14.05;7.90;;;34.30;91.00;;;;;;4165202;28;20096;-67
2022/06/07 09:01:43;;;;;;;17.75;10.88;;;34.20;91.00;;;;;;4163479;28;20092;-67
2022/06/07 09:04:12;;;;;;;7.70;4.72;;;34.10;91.00;;;;;;4165332;28;20053;-67
2022/06/07 09:06:39;;;;;;;7.10;2.95;;;34.10;91.20;;;;;;4151285;28;20131;-66
2022/06/07 09:09:05;;;;;;;4.85;1.50;;;34.10;91.30;;;;;;4167982;28;20104;-66
2022/06/07 09:13:43;;;;;;;5.20;1.83;;;34.20;91.00;;;;;;4158073;28;20056;-67
2022/06/07 09:15:54;;;;;;;3.97;1.90;;;34.40;90.80;;;;;;4152525;28;20057;-66
2022/06/07 09:18:06;;;;;;;4.75;2.00;;;34.50;90.70;;;;;;4152116;28;20045;-67
2022/06/07 09:20:17;;;;;;;4.13;1.90;;;34.50;90.70;;;;;;4126275;28;20794;-66
2022/06/07 09:22:40;;;;;;;5.13;2.08;;;34.40;90.90;;;;;;4121472;28;20085;-67
2022/06/07 09:25:01;;;;;;;4.10;1.73;;;34.30;90.80;;;;;;4132281;28;20128;-67
2022/06/07 09:27:16;;;;;;;6.65;2.15;;;34.10;91.00;;;;;;4135240;28;20580;-68
2022/06/07 09:29:23;;;;;;;4.30;1.60;;;34.10;90.80;;;;;;4131053;28;20049;-67
2022/06/07 09:31:29;;;;;;;3.80;1.80;;;34.00;90.70;;;;;;4134321;28;20117;-68
2022/06/07 09:33:48;;;;;;;7.35;1.73;;;33.90;90.70;;;;;;4146625;28;20044;-68
2022/06/07 09:36:09;;;;;;;4.43;1.80;;;33.90;90.60;;;;;;4137230;28;20531;-67
2022/06/07 09:38:18;;;;;;;5.00;1.70;;;33.90;90.60;;;;;;4149921;28;20478;-67
2022/06/07 09:40:33;;;;;;;4.88;2.25;;;33.90;90.80;;;;;;4129954;28;20465;-66
2022/06/07 09:42:41;;;;;;;4.18;1.83;;;33.90;90.80;;;;;;4146956;28;20504;-67
2022/06/07 09:45:02;;;;;;;4.25;2.08;;;33.90;91.10;;;;;;4130941;28;20055;-66
2022/06/07 09:47:16;;;;;;;8.23;2.30;;;33.80;91.40;;;;;;4162400;28;20049;-66
2022/06/07 09:49:34;;;;;;;2.83;1.50;;;33.70;91.10;;;;;;4165606;28;20095;-68
2022/06/07 09:51:41;;;;;;;3.33;1.58;;;33.70;91.00;;;;;;4161466;28;20072;-67
2022/06/07 09:53:58;;;;;;;5.70;2.50;;;33.50;90.80;;;;;;4167516;28;20048;-67
2022/06/07 09:56:18;;;;;;;11.07;7.35;;;33.50;91.00;;;;;;4158163;28;20045;-67
2022/06/07 09:58:41;;;;;;;8.70;5.72;;;33.50;90.90;;;;;;4165185;28;20077;-67
2022/06/07 10:01:08;;;;;;;7.88;3.90;;;33.50;90.80;;;;;;4161540;28;20045;-68
2022/06/07 10:03:24;;;;;;;6.63;3.42;;;33.50;90.90;;;;;;4160742;28;20041;-67
2022/06/07 10:05:37;;;;;;;8.15;4.22;;;33.40;91.00;;;;;;4164663;28;20136;-67
2022/06/07 10:07:54;;;;;;;7.15;3.97;;;33.40;90.80;;;;;;4160510;28;20124;-68
2022/06/07 10:10:08;;;;;;;5.35;1.88;;;33.30;90.40;;;;;;4159798;28;20049;-67
2022/06/07 10:12:19;;;;;;;3.63;1.63;;;33.20;90.50;;;;;;4156897;28;20045;-67
2022/06/07 10:14:37;;;;;;;;;;;33.20;90.60;;;;;;4159942;28;20038;-68
2022/06/07 10:16:45;;;;;;;4.85;1.70;;;33.20;90.60;;;;;;4170674;28;19929;-68
2022/06/07 10:19:11;;;;;;;5.95;1.65;;;33.20;90.70;;;;;;4157506;28;20041;-67
2022/06/07 10:21:34;;;;;;;2.78;1.55;;;33.20;90.80;;;;;;4164174;28;20140;-67
2022/06/07 10:24:02;;;;;;;3.33;1.65;;;33.10;90.80;;;;;;4159445;28;20049;-68
2022/06/07 10:26:37;;;;;;;3.40;1.38;;;33.10;90.80;;;;;;4164950;28;20462;-68
2022/06/07 10:29:03;;;;;;;4.53;1.70;;;33.10;90.70;;;;;;4157386;28;20111;-68
2022/06/07 10:31:33;;;;;;;3.67;1.63;;;33.10;90.90;;;;;;4168674;28;20059;-68
2022/06/07 10:34:00;;;;;;;4.13;1.40;;;33.00;90.70;;;;;;4166209;28;20056;-68
2022/06/07 10:36:20;;;;;;;5.47;1.75;;;32.90;90.90;;;;;;4162058;28;20045;-68
2022/06/07 10:38:41;;;;;;;5.95;2.90;;;32.90;90.90;;;;;;4166414;28;20500;-68
2022/06/07 10:41:07;;;;;;;;;;;33.00;91.00;;;;;;4144995;28;20476;-67
2022/06/07 10:43:28;;;;;;;17.88;6.28;;;32.90;91.20;;;;;;4188330;28;20031;-69
2022/06/07 10:45:44;;;;;;;14.77;7.85;;;32.90;91.10;;;;;;4150305;28;20050;-68
2022/06/07 10:48:10;;;;;;;11.07;6.07;;;32.80;91.10;;;;;;4142223;28;20060;-68
2022/06/07 10:50:20;;;;;;;16.52;8.48;;;32.80;91.20;;;;;;4153131;28;20057;-68
2022/06/07 10:52:44;;;;;;;11.98;5.63;;;32.80;91.30;;;;;;4134802;28;20104;-68
2022/06/07 10:55:10;;;;;;;9.40;2.42;;;32.70;91.20;;;;;;4123137;28;20594;-67
2022/06/07 10:57:33;;;;;;;5.20;2.50;;;32.70;91.10;;;;;;4148036;28;20043;-69
2022/06/07 10:59:45;;;;;;;3.92;2.03;;;32.70;91.40;;;;;;4132289;28;20157;-68
2022/06/07 11:02:00;;;;;;;4.97;2.42;;;32.70;91.40;;;;;;4139088;28;20060;-67
2022/06/07 11:09:42;;;;;;;5.25;2.33;;;32.60;91.40;;;;;;4127330;28;20046;-68
2022/06/07 11:12:03;;;;;;;5.38;2.35;;;32.60;91.50;;;;;;4124914;28;20173;-67
2022/06/07 11:14:18;;;;;;;5.35;2.40;;;32.50;91.20;;;;;;4139423;28;20775;-69
2022/06/07 11:16:53;;;;;;;5.30;3.03;;;32.40;91.50;;;;;;4124916;28;20046;-68
2022/06/07 11:19:07;;;;;;;6.97;3.70;;;32.40;91.60;;;;;;4138584;28;20069;-68
2022/06/07 11:21:28;;;;;;;5.68;3.38;;;32.40;91.70;;;;;;4141787;28;20050;-68
2022/06/07 11:23:44;;;;;;;6.45;3.00;;;32.40;91.70;;;;;;4159608;28;20053;-68
2022/06/07 11:26:14;;;;;;;6.25;2.90;;;32.40;91.80;;;;;;4158954;28;20152;-68
2022/06/07 11:28:24;;;;;;;6.55;2.72;;;32.30;91.60;;;;;;4163788;28;20095;-69
2022/06/07 11:30:36;;;;;;;11.27;2.90;;;32.30;91.60;;;;;;4162513;28;20072;-67
2022/06/07 11:32:51;;;;;;;8.38;2.75;;;32.20;91.60;;;;;;4158819;28;20291;-68
2022/06/07 11:34:57;;;;;;;3.88;2.00;;;32.20;91.40;;;;;;4157936;28;20053;-68
2022/06/07 11:37:22;;;;;;;6.03;2.20;;;32.20;91.50;;;;;;4154781;28;20080;-68
2022/06/07 11:39:49;;;;;;;6.32;2.22;;;32.20;91.50;;;;;;4152483;28;20054;-68
2022/06/07 11:41:55;;;;;;;4.20;2.40;;;32.10;91.60;;;;;;4142186;28;20073;-69
2022/06/07 11:44:10;;;;;;;5.82;2.03;;;32.10;91.70;;;;;;4159202;28;20153;-68
2022/06/07 11:46:25;;;;;;;5.78;2.03;;;32.10;91.70;;;;;;4163231;28;20053;-69
2022/06/07 11:48:43;;;;;;;6.57;2.33;;;32.00;91.80;;;;;;4157500;28;20041;-68
2022/06/07 11:51:08;;;;;;;4.43;1.95;;;32.00;92.00;;;;;;4165190;28;20827;-68
2022/06/07 11:53:31;;;;;;;7.70;2.30;;;32.00;91.90;;;;;;4149411;28;20041;-67
2022/06/07 11:55:44;;;;;;;6.25;2.40;;;32.00;92.00;;;;;;4150472;28;20595;-67
2022/06/07 11:58:00;;;;;;;5.40;2.17;;;31.90;92.30;;;;;;4109187;28;20074;-68
2022/06/07 12:00:17;;;;;;;4.45;1.83;;;31.90;92.30;;;;;;4159794;28;20173;-67
2022/06/07 12:02:29;;;;;;;3.33;2.30;;;31.90;92.50;;;;;;4168580;28;20049;-67
2022/06/07 12:04:47;;;;;;;5.80;2.30;;;31.80;92.60;;;;;;4122578;28;20054;-66
2022/06/07 12:07:00;;;;;;;7.70;2.20;;;31.90;92.60;;;;;;4140933;28;20053;-66
2022/06/07 12:09:05;;;;;;;4.63;2.63;;;31.80;92.70;;;;;;4157599;28;20140;-67
2022/06/07 12:11:21;;;;;;;5.25;2.17;;;31.80;92.70;;;;;;4160332;28;20045;-67
2022/06/07 12:15:51;;;;;;;5.95;2.33;;;31.70;92.80;;;;;;4168718;28;20048;-67
2022/06/07 12:18:02;;;;;;;5.40;2.80;;;31.70;92.80;;;;;;4158440;28;20064;-67
2022/06/07 12:20:34;;;;;;;7.32;2.60;;;31.70;92.80;;;;;;4163632;28;20061;-67
2022/06/07 12:22:42;;;;;;;7.68;2.80;;;31.70;93.00;;;;;;4164352;28;20555;-68
2022/06/07 12:25:00;;;;;;;4.70;2.70;;;31.70;93.00;;;;;;4166355;28;20616;-68
2022/06/07 12:27:21;;;;;;;6.93;2.55;;;31.70;92.80;;;;;;4158502;28;20087;-67
2022/06/07 12:30:27;;;;;;;6.45;3.08;;;31.60;92.90;;;;;;4164697;28;20049;-66
2022/06/07 12:32:38;;;;;;;8.32;3.10;;;31.60;93.10;;;;;;4168263;28;20156;-67
2022/06/07 12:34:45;;;;;;;4.40;2.45;;;31.60;93.20;;;;;;4161447;28;20718;-67